Terminal Aerodrome Forecast
Issued by NWS Medford, OR

Home | Current Version | Previous Version | Text Only | Print | Product List | Glossary On
Versions: 1 2 3 4 5 6 7 8 9 10 11 12
000
FTUS46 KMFR 041130
TAFMFR
TAF
KMFR 041130Z 0412/0512 VRB03KT P6SM SKC
     FM042100 31013G20KT P6SM SKC
     FM050400 34005KT P6SM BKN050=

USA.gov is the U.S. government's official web portal to all federal, state and local government web resources and services.